Time;durP1;ratioP1;P1;durP2;ratioP2;P2;SDS_P1;SDS_P2;PMS_P1;PMS_P2;Temp;Humidity;BMP_temperature;BMP_pressure;BME280_temperature;BME280_humidity;BME280_pressure;Samples;Min_cycle;Max_cycle;Signal;HPM_P1;HPM_P2
2021/06/07 00:00:22;;;;;;;21.97;20.03;;;23.80;99.90;;;;;;3628409;39;20771;-64
2021/06/07 00:02:49;;;;;;;20.50;19.07;;;23.80;99.90;;;;;;3629013;39;20479;-64
2021/06/07 00:05:17;;;;;;;21.47;19.90;;;23.80;99.90;;;;;;3629201;39;20502;-64
2021/06/07 00:07:45;;;;;;;22.50;20.70;;;23.80;99.90;;;;;;3628830;39;20486;-64
2021/06/07 00:10:15;;;;;;;20.70;19.20;;;23.80;99.90;;;;;;3628648;39;20467;-64
2021/06/07 00:12:41;;;;;;;21.97;20.27;;;23.80;99.90;;;;;;3628611;39;20487;-64
2021/06/07 00:15:12;;;;;;;21.27;19.73;;;23.80;99.90;;;;;;3628922;39;20493;-64
2021/06/07 00:17:40;;;;;;;21.70;20.07;;;23.80;99.90;;;;;;3628490;39;20510;-64
2021/06/07 00:20:08;;;;;;;20.80;19.23;;;23.80;99.90;;;;;;3628274;39;20474;-64
2021/06/07 00:22:34;;;;;;;20.67;19.23;;;23.80;99.90;;;;;;3629485;39;20497;-64
2021/06/07 00:25:02;;;;;;;22.23;20.63;;;23.80;99.90;;;;;;3628347;39;20603;-64
2021/06/07 00:27:30;;;;;;;20.27;18.57;;;23.80;99.90;;;;;;3629749;39;20758;-64
2021/06/07 00:30:00;;;;;;;21.13;19.63;;;23.80;99.90;;;;;;3628698;39;20771;-64
2021/06/07 00:32:26;;;;;;;21.17;19.67;;;23.80;99.90;;;;;;3628154;39;20554;-64
2021/06/07 00:34:53;;;;;;;21.50;19.90;;;23.80;99.90;;;;;;3628246;39;20470;-64
2021/06/07 00:37:19;;;;;;;22.17;20.60;;;23.80;99.90;;;;;;3626987;39;20601;-64
2021/06/07 00:39:46;;;;;;;19.93;18.53;;;23.80;99.90;;;;;;3628969;39;20534;-64
2021/06/07 00:42:13;;;;;;;19.70;18.30;;;23.80;99.90;;;;;;3629055;39;20479;-64
2021/06/07 00:44:41;;;;;;;21.63;20.03;;;23.80;99.90;;;;;;3628445;39;20486;-64
2021/06/07 00:47:08;;;;;;;21.60;20.03;;;23.80;99.90;;;;;;3629442;39;20478;-64
2021/06/07 00:49:35;;;;;;;20.13;18.83;;;23.80;99.90;;;;;;3628616;39;20535;-64
2021/06/07 00:52:02;;;;;;;19.60;18.17;;;23.80;99.90;;;;;;3629375;39;20483;-64
2021/06/07 00:54:30;;;;;;;20.90;19.50;;;23.80;99.90;;;;;;3628993;39;20532;-64
2021/06/07 00:56:56;;;;;;;20.83;19.10;;;23.80;99.90;;;;;;3629832;39;20820;-64
2021/06/07 00:59:23;;;;;;;21.17;19.67;;;23.80;99.90;;;;;;3628161;39;20840;-64
2021/06/07 01:01:52;;;;;;;21.13;19.53;;;23.80;99.80;;;;;;3628400;39;20486;-64
2021/06/07 01:04:19;;;;;;;20.50;18.90;;;23.80;99.80;;;;;;3629305;39;20546;-64
2021/06/07 01:06:45;;;;;;;20.17;18.77;;;23.80;99.80;;;;;;3629383;39;20486;-64
2021/06/07 01:09:12;;;;;;;20.23;18.83;;;23.80;99.80;;;;;;3619992;39;20479;-64
2021/06/07 01:11:39;;;;;;;20.27;18.73;;;23.80;99.80;;;;;;3628211;39;20559;-64
2021/06/07 01:14:06;;;;;;;20.63;19.00;;;23.80;99.70;;;;;;3628488;39;20483;-64
2021/06/07 01:16:33;;;;;;;20.83;19.33;;;23.80;99.70;;;;;;3628288;39;20812;-64
2021/06/07 01:19:02;;;;;;;21.57;19.70;;;23.80;99.70;;;;;;3628186;39;20546;-64
2021/06/07 01:21:29;;;;;;;21.37;19.87;;;23.90;99.70;;;;;;3628865;39;20455;-64
2021/06/07 01:23:57;;;;;;;19.90;18.50;;;23.80;99.60;;;;;;3628515;39;20474;-64
2021/06/07 01:26:26;;;;;;;20.43;19.00;;;23.80;99.60;;;;;;3628197;39;20470;-64
2021/06/07 01:28:54;;;;;;;20.63;19.13;;;23.80;99.60;;;;;;3628712;39;20470;-64
2021/06/07 01:31:22;;;;;;;20.70;19.30;;;23.80;99.60;;;;;;3629278;39;20874;-64
2021/06/07 01:33:51;;;;;;;20.90;19.40;;;23.80;99.50;;;;;;3628968;39;20478;-64
2021/06/07 01:36:18;;;;;;;19.83;18.53;;;23.80;99.50;;;;;;3629013;39;20488;-64
2021/06/07 01:38:45;;;;;;;19.63;18.23;;;23.90;99.60;;;;;;3630285;39;20466;-64
2021/06/07 01:41:15;;;;;;;21.17;19.57;;;23.80;99.50;;;;;;3630646;39;20934;-64
2021/06/07 01:43:43;;;;;;;19.93;18.60;;;23.80;99.40;;;;;;3630451;39;20851;-64
2021/06/07 01:46:09;;;;;;;19.67;18.27;;;23.80;99.40;;;;;;3630596;39;20509;-64
2021/06/07 01:48:37;;;;;;;21.70;19.90;;;23.80;99.40;;;;;;3629950;39;20543;-64
2021/06/07 01:51:06;;;;;;;20.33;18.93;;;23.80;99.40;;;;;;3630531;39;20469;-64
2021/06/07 01:53:33;;;;;;;20.77;19.23;;;23.90;99.40;;;;;;3621290;39;20478;-64
2021/06/07 01:56:04;;;;;;;19.73;18.33;;;23.80;99.30;;;;;;3620652;39;20478;-63
2021/06/07 01:58:32;;;;;;;19.07;17.77;;;23.80;99.30;;;;;;3628980;39;20486;-64
2021/06/07 02:01:04;;;;;;;20.23;18.87;;;23.90;99.40;;;;;;3630151;39;20470;-64
2021/06/07 02:03:31;;;;;;;20.97;19.40;;;23.80;99.30;;;;;;3630365;39;20474;-64
2021/06/07 02:06:02;;;;;;;20.40;18.80;;;23.80;99.30;;;;;;3630446;39;20482;-64
2021/06/07 02:08:30;;;;;;;20.43;18.87;;;23.90;99.30;;;;;;3630907;39;20471;-64
2021/06/07 02:10:59;;;;;;;20.37;18.97;;;23.80;99.20;;;;;;3630511;39;20486;-64
2021/06/07 02:13:26;;;;;;;18.73;17.33;;;23.80;99.20;;;;;;3630489;39;20467;-64
2021/06/07 02:15:56;;;;;;;21.30;19.90;;;23.80;99.20;;;;;;3630717;39;20894;-64
2021/06/07 02:18:23;;;;;;;21.30;19.90;;;23.90;99.20;;;;;;3620440;39;20478;-64
2021/06/07 02:20:50;;;;;;;20.13;18.77;;;23.80;99.20;;;;;;3630519;39;20483;-64
2021/06/07 02:23:17;;;;;;;21.43;19.93;;;23.90;99.20;;;;;;3620486;39;21096;-65
2021/06/07 02:25:44;;;;;;;19.87;18.37;;;23.80;99.10;;;;;;3630188;39;20817;-65
2021/06/07 02:28:12;;;;;;;20.33;19.03;;;23.80;99.10;;;;;;3629051;39;20506;-65
2021/06/07 02:30:38;;;;;;;19.60;18.30;;;23.80;99.10;;;;;;3629346;39;20816;-66
2021/06/07 02:33:07;;;;;;;19.47;18.17;;;23.80;99.10;;;;;;3630256;39;20482;-65
2021/06/07 02:35:34;;;;;;;20.50;19.00;;;23.90;99.10;;;;;;3629939;39;20872;-65
2021/06/07 02:38:00;;;;;;;20.23;18.83;;;23.80;99.00;;;;;;3630070;39;20893;-65
2021/06/07 02:40:29;;;;;;;20.20;18.90;;;23.80;99.00;;;;;;3631199;39;20897;-65
2021/06/07 02:42:57;;;;;;;20.10;18.90;;;23.80;99.00;;;;;;3629314;39;20451;-65
2021/06/07 02:45:25;;;;;;;20.37;18.97;;;23.80;99.00;;;;;;3629908;39;20486;-65
2021/06/07 02:47:54;;;;;;;20.30;18.83;;;23.80;99.00;;;;;;3630077;39;20515;-65
2021/06/07 02:50:25;;;;;;;21.43;19.83;;;23.80;98.90;;;;;;3630014;39;20478;-65
2021/06/07 02:52:51;;;;;;;20.37;18.97;;;23.90;99.00;;;;;;3629597;39;20482;-65
2021/06/07 02:55:21;;;;;;;19.70;18.50;;;23.80;98.90;;;;;;3629766;39;20486;-65
2021/06/07 02:57:48;;;;;;;18.70;17.50;;;23.80;98.90;;;;;;3630215;39;20784;-65
2021/06/07 03:00:19;;;;;;;19.23;17.93;;;23.80;98.90;;;;;;3630246;39;21080;-65
2021/06/07 03:02:46;;;;;;;20.20;18.90;;;23.90;98.90;;;;;;3630038;39;20501;-65
2021/06/07 03:05:12;;;;;;;20.00;18.70;;;23.80;98.80;;;;;;3629890;39;20554;-65
2021/06/07 03:07:40;;;;;;;20.20;18.80;;;23.90;98.90;;;;;;3630347;39;20912;-65
2021/06/07 03:10:09;;;;;;;18.93;17.63;;;23.80;98.80;;;;;;3630098;39;20478;-65
2021/06/07 03:12:36;;;;;;;20.60;19.10;;;23.80;98.80;;;;;;3627064;39;20474;-65
2021/06/07 03:15:04;;;;;;;19.93;18.60;;;23.80;98.80;;;;;;3620159;39;21115;-65
2021/06/07 03:17:30;;;;;;;20.73;19.23;;;23.80;98.80;;;;;;3630803;39;20630;-65
2021/06/07 03:19:57;;;;;;;19.80;18.50;;;23.90;98.80;;;;;;3630030;39;20543;-65
2021/06/07 03:22:24;;;;;;;20.77;19.47;;;23.90;98.80;;;;;;3629980;39;20501;-65
2021/06/07 03:24:52;;;;;;;20.67;19.20;;;23.80;98.70;;;;;;3629082;39;21096;-65
2021/06/07 03:27:20;;;;;;;22.07;20.60;;;23.90;98.70;;;;;;3630262;39;20531;-65
2021/06/07 03:29:46;;;;;;;20.33;18.90;;;23.80;98.70;;;;;;3630039;39;20482;-65
2021/06/07 03:32:14;;;;;;;20.43;19.20;;;23.80;98.60;;;;;;3620872;39;20471;-65
2021/06/07 03:34:40;;;;;;;20.27;18.97;;;23.90;98.70;;;;;;3618654;39;20475;-65
2021/06/07 03:37:07;;;;;;;21.03;19.57;;;23.90;98.70;;;;;;3619524;39;20491;-65
2021/06/07 03:39:34;;;;;;;20.03;18.73;;;23.90;98.70;;;;;;3618692;39;20475;-65
2021/06/07 03:42:03;;;;;;;20.97;19.67;;;23.90;98.60;;;;;;3609757;39;20488;-65
2021/06/07 03:44:30;;;;;;;22.17;20.70;;;23.90;98.60;;;;;;3618623;39;20854;-65
2021/06/07 03:46:56;;;;;;;20.60;19.30;;;23.80;98.60;;;;;;3618064;39;20479;-65
2021/06/07 03:49:23;;;;;;;19.50;18.27;;;23.90;98.60;;;;;;3618452;39;20471;-65
2021/06/07 03:51:50;;;;;;;21.90;20.50;;;23.80;98.50;;;;;;3618465;39;20762;-65
2021/06/07 03:54:19;;;;;;;20.93;19.63;;;23.90;98.60;;;;;;3608413;39;20460;-65
2021/06/07 03:56:45;;;;;;;21.23;19.90;;;23.90;98.50;;;;;;3608816;39;20552;-65
2021/06/07 03:59:14;;;;;;;20.07;18.83;;;23.90;98.50;;;;;;3617269;39;20455;-65
2021/06/07 04:01:41;;;;;;;21.30;19.93;;;23.80;98.50;;;;;;3618155;39;20624;-65
2021/06/07 04:04:08;;;;;;;19.63;18.50;;;23.80;98.50;;;;;;3617384;39;20470;-65
2021/06/07 04:06:34;;;;;;;19.67;18.27;;;23.90;98.50;;;;;;3617200;39;20487;-65
2021/06/07 04:09:02;;;;;;;21.07;19.70;;;23.90;98.50;;;;;;3628499;39;20501;-65
2021/06/07 04:11:29;;;;;;;21.77;20.37;;;23.90;98.50;;;;;;3619004;39;20563;-65
2021/06/07 04:13:58;;;;;;;19.33;18.13;;;23.90;98.80;;;;;;3627835;39;20706;-65
2021/06/07 04:16:25;;;;;;;21.10;19.70;;;23.90;98.40;;;;;;3627182;39;20485;-65
2021/06/07 04:18:52;;;;;;;20.17;18.97;;;23.80;98.40;;;;;;3626345;39;20891;-65
2021/06/07 04:21:19;;;;;;;21.00;19.70;;;23.80;98.30;;;;;;3627665;39;20534;-65
2021/06/07 04:23:45;;;;;;;21.03;19.67;;;23.90;98.40;;;;;;3627663;39;20561;-65
2021/06/07 04:26:12;;;;;;;20.03;18.80;;;23.80;98.30;;;;;;3628110;39;20567;-65
2021/06/07 04:28:39;;;;;;;19.43;18.23;;;23.80;98.30;;;;;;3617628;39;20479;-65
2021/06/07 04:31:06;;;;;;;20.90;19.60;;;23.90;98.30;;;;;;3615888;39;20478;-65
2021/06/07 04:33:34;;;;;;;21.30;19.93;;;23.90;98.40;;;;;;3624639;39;20512;-65
2021/06/07 04:36:00;;;;;;;20.27;19.00;;;23.90;98.30;;;;;;3626133;39;21010;-65
2021/06/07 04:38:27;;;;;;;20.20;18.97;;;23.90;98.30;;;;;;3625164;39;20884;-65
2021/06/07 04:40:54;;;;;;;21.47;20.10;;;23.90;98.30;;;;;;3624821;39;20831;-65
2021/06/07 04:43:20;;;;;;;21.75;20.45;;;23.80;98.20;;;;;;3624512;39;20484;-65
2021/06/07 04:45:47;;;;;;;20.30;19.10;;;23.90;98.30;;;;;;3623484;39;20255;-65
2021/06/07 04:48:14;;;;;;;20.97;19.67;;;23.90;98.30;;;;;;3624495;39;20490;-65
2021/06/07 04:50:44;;;;;;;20.63;19.43;;;23.90;98.20;;;;;;3625910;39;20480;-65
2021/06/07 04:53:12;;;;;;;20.83;19.60;;;23.90;98.20;;;;;;3624564;39;20499;-65
2021/06/07 04:55:41;;;;;;;20.50;19.30;;;23.90;98.20;;;;;;3624361;39;20478;-65
2021/06/07 04:58:10;;;;;;;19.53;18.33;;;23.90;98.20;;;;;;3623560;39;20489;-65
2021/06/07 05:00:38;;;;;;;17.83;16.73;;;23.90;98.10;;;;;;3622954;39;20735;-65
2021/06/07 05:03:04;;;;;;;19.60;18.40;;;23.90;98.10;;;;;;3622660;39;20509;-65
2021/06/07 05:05:31;;;;;;;20.43;19.07;;;23.90;98.40;;;;;;3622178;39;20489;-65
2021/06/07 05:07:59;;;;;;;20.00;18.70;;;23.90;98.10;;;;;;3616181;39;20479;-65
2021/06/07 05:10:26;;;;;;;19.37;18.17;;;23.80;98.00;;;;;;3612431;39;21127;-65
2021/06/07 05:12:53;;;;;;;20.03;18.80;;;23.80;98.00;;;;;;3612316;39;21116;-65
2021/06/07 05:15:19;;;;;;;20.10;19.00;;;23.90;98.10;;;;;;3612636;39;20485;-65
2021/06/07 05:17:46;;;;;;;18.80;17.60;;;23.90;98.10;;;;;;3609983;39;20534;-65
2021/06/07 05:20:15;;;;;;;20.30;19.00;;;23.90;98.10;;;;;;3609904;39;20796;-65
2021/06/07 05:22:42;;;;;;;19.83;18.43;;;23.90;98.00;;;;;;3609596;39;20587;-65
2021/06/07 05:25:11;;;;;;;20.10;18.90;;;23.90;98.00;;;;;;3610232;39;20927;-65
2021/06/07 05:27:46;;;;;;;19.77;18.50;;;23.90;98.00;;;;;;3600030;39;20507;-65
2021/06/07 05:30:14;;;;;;;19.17;17.97;;;23.90;98.00;;;;;;3603201;39;20714;-65
2021/06/07 05:32:41;;;;;;;20.03;18.80;;;23.90;98.00;;;;;;3606300;39;20472;-65
2021/06/07 05:35:10;;;;;;;19.73;18.63;;;23.80;97.90;;;;;;3607445;39;20563;-65
2021/06/07 05:37:37;;;;;;;20.10;19.00;;;23.90;98.00;;;;;;3602368;39;20712;-65
2021/06/07 05:40:04;;;;;;;19.60;18.40;;;23.90;98.00;;;;;;3597335;39;20491;-65
2021/06/07 05:42:33;;;;;;;20.10;19.00;;;23.90;98.00;;;;;;3603669;39;20471;-65
2021/06/07 05:44:59;;;;;;;19.53;18.37;;;23.90;97.90;;;;;;3602057;39;21406;-65
2021/06/07 05:47:26;;;;;;;19.10;18.10;;;23.90;97.90;;;;;;3605594;39;20486;-65
2021/06/07 05:49:52;;;;;;;20.27;19.07;;;23.90;97.90;;;;;;3590065;39;21252;-65
2021/06/07 05:52:19;;;;;;;20.57;19.37;;;23.90;97.90;;;;;;3588743;39;21149;-65
2021/06/07 05:54:46;;;;;;;20.60;19.30;;;23.90;98.20;;;;;;3596891;39;20479;-65
2021/06/07 05:57:12;;;;;;;19.60;18.27;;;23.90;98.40;;;;;;3602817;39;20483;-61
2021/06/07 05:59:40;;;;;;;20.53;19.20;;;23.80;98.70;;;;;;3599901;39;20494;-60
2021/06/07 06:02:08;;;;;;;19.90;18.60;;;23.80;99.10;;;;;;3598925;39;20498;-60
2021/06/07 06:04:35;;;;;;;20.37;18.97;;;23.70;99.40;;;;;;3599219;39;20568;-60
2021/06/07 06:07:02;;;;;;;21.50;20.00;;;23.60;99.60;;;;;;3602033;39;20486;-61
2021/06/07 06:09:30;;;;;;;23.50;21.57;;;23.60;99.80;;;;;;3598222;39;20490;-60
2021/06/07 06:11:57;;;;;;;28.00;25.13;;;23.50;99.90;;;;;;3612342;39;20486;-61
2021/06/07 06:14:24;;;;;;;33.27;29.80;;;23.50;99.90;;;;;;3608246;39;20486;-61
2021/06/07 06:16:53;;;;;;;43.13;33.40;;;23.40;99.90;;;;;;3610287;39;20494;-61
2021/06/07 06:19:23;;;;;;;61.40;41.40;;;23.40;99.90;;;;;;3609801;39;20590;-59
2021/06/07 06:21:50;;;;;;;37.10;31.83;;;23.30;99.90;;;;;;3607757;39;20550;-60
2021/06/07 06:24:17;;;;;;;42.57;31.90;;;23.30;99.90;;;;;;3600352;39;20498;-60
2021/06/07 06:26:43;;;;;;;39.70;29.30;;;23.30;99.90;;;;;;3605375;39;20851;-61
2021/06/07 06:29:10;;;;;;;30.53;27.37;;;23.30;99.90;;;;;;3608049;39;20478;-61
2021/06/07 06:31:37;;;;;;;28.17;25.47;;;23.30;99.90;;;;;;3602535;39;20971;-61
2021/06/07 06:34:05;;;;;;;24.90;22.80;;;23.30;99.90;;;;;;3598189;39;20517;-60
2021/06/07 06:36:31;;;;;;;23.40;21.50;;;23.20;99.90;;;;;;3607204;39;20490;-60
2021/06/07 06:39:01;;;;;;;23.87;21.53;;;23.20;99.90;;;;;;3604832;39;20733;-61
2021/06/07 06:41:29;;;;;;;23.80;21.50;;;23.20;99.90;;;;;;3605059;39;20574;-60
2021/06/07 06:43:55;;;;;;;21.50;19.90;;;23.20;99.90;;;;;;3605145;39;20632;-61
2021/06/07 06:46:22;;;;;;;22.17;20.57;;;23.20;99.90;;;;;;3601512;39;20525;-60
2021/06/07 06:48:48;;;;;;;21.30;19.70;;;23.20;99.90;;;;;;3604474;39;20893;-60
2021/06/07 06:51:16;;;;;;;19.57;18.20;;;23.20;99.90;;;;;;3603281;39;20777;-60
2021/06/07 06:53:43;;;;;;;18.70;17.30;;;23.20;99.90;;;;;;3606346;39;21185;-61
2021/06/07 06:56:10;;;;;;;20.93;19.07;;;23.20;99.90;;;;;;3608829;39;20475;-62
2021/06/07 06:58:36;;;;;;;19.83;17.95;;;23.20;99.90;;;;;;3603357;39;20502;-61
2021/06/07 07:01:03;;;;;;;19.07;17.30;;;23.20;99.90;;;;;;3601004;39;20245;-60
2021/06/07 07:03:30;;;;;;;17.67;16.37;;;23.20;99.90;;;;;;3600395;39;20480;-61
2021/06/07 07:05:57;;;;;;;18.47;17.10;;;23.30;99.90;;;;;;3606757;39;20474;-60
2021/06/07 07:08:25;;;;;;;18.63;17.33;;;23.30;99.90;;;;;;3605204;39;20888;-60
2021/06/07 07:10:53;;;;;;;18.23;16.93;;;23.40;99.90;;;;;;3606904;39;20502;-63
2021/06/07 07:13:23;;;;;;;18.13;16.90;;;23.40;99.90;;;;;;3598965;39;20681;-63
2021/06/07 07:15:49;;;;;;;17.00;15.77;;;23.50;99.90;;;;;;3604047;39;20943;-64
2021/06/07 07:18:16;;;;;;;17.00;15.80;;;23.50;99.90;;;;;;3606791;39;20466;-64
2021/06/07 07:20:43;;;;;;;17.00;15.40;;;23.50;99.90;;;;;;3608623;39;20489;-64
2021/06/07 07:23:10;;;;;;;16.63;15.23;;;23.50;99.90;;;;;;3609056;39;20661;-63
2021/06/07 07:25:40;;;;;;;17.77;16.23;;;23.60;99.90;;;;;;3604272;39;20726;-61
2021/06/07 07:28:07;;;;;;;18.07;16.67;;;23.60;99.90;;;;;;3597059;39;20568;-65
2021/06/07 07:30:35;;;;;;;16.80;15.63;;;23.60;99.90;;;;;;3594196;39;20513;-65
2021/06/07 07:33:03;;;;;;;18.58;17.35;;;23.60;99.90;;;;;;3606662;39;20484;-64
2021/06/07 07:35:30;;;;;;;17.67;16.27;;;23.60;99.90;;;;;;3622142;39;20241;-64
2021/06/07 07:37:56;;;;;;;17.20;16.20;;;23.70;99.90;;;;;;3613405;39;20821;-64
2021/06/07 07:40:25;;;;;;;17.53;16.43;;;23.70;99.90;;;;;;3607831;39;20875;-64
2021/06/07 07:42:56;;;;;;;16.50;15.40;;;23.70;99.90;;;;;;3595226;39;20833;-64
2021/06/07 07:45:26;;;;;;;17.80;16.37;;;23.70;99.90;;;;;;3606338;39;20528;-65
2021/06/07 07:47:53;;;;;;;17.07;15.70;;;23.70;99.90;;;;;;3607136;39;20573;-64
2021/06/07 07:50:21;;;;;;;16.07;14.97;;;23.70;99.90;;;;;;3609690;39;20501;-64
2021/06/07 07:52:49;;;;;;;15.53;14.53;;;23.70;99.90;;;;;;3609963;39;20549;-64
2021/06/07 07:55:19;;;;;;;16.70;15.23;;;23.70;99.90;;;;;;3605028;39;20800;-64
2021/06/07 07:57:47;;;;;;;15.30;14.30;;;23.70;99.90;;;;;;3605712;39;20509;-64
2021/06/07 08:00:16;;;;;;;15.37;14.57;;;23.80;99.90;;;;;;3608199;39;20479;-64
2021/06/07 08:02:42;;;;;;;17.43;16.13;;;23.80;99.90;;;;;;3608597;39;20980;-63
2021/06/07 08:05:10;;;;;;;15.77;14.80;;;23.80;99.90;;;;;;3611596;39;20482;-63
2021/06/07 08:07:37;;;;;;;16.93;15.70;;;23.80;99.90;;;;;;3608862;39;20781;-64
2021/06/07 08:10:04;;;;;;;16.03;15.00;;;23.80;99.90;;;;;;3611213;39;20551;-63
2021/06/07 08:12:31;;;;;;;15.50;14.10;;;23.80;99.90;;;;;;3597168;39;20478;-64
2021/06/07 08:14:57;;;;;;;15.00;14.20;;;23.80;99.90;;;;;;3605329;39;20470;-65
2021/06/07 08:17:25;;;;;;;16.23;14.73;;;23.80;99.90;;;;;;3606708;39;20481;-65
2021/06/07 08:19:52;;;;;;;14.90;13.90;;;23.80;99.90;;;;;;3603784;39;20512;-65
2021/06/07 08:22:19;;;;;;;14.80;13.67;;;23.80;99.90;;;;;;3606757;39;20965;-65
2021/06/07 08:24:46;;;;;;;13.87;13.10;;;23.80;99.90;;;;;;3607924;39;20680;-63
2021/06/07 08:27:13;;;;;;;14.27;13.57;;;23.80;99.90;;;;;;3606987;39;21106;-62
2021/06/07 08:29:39;;;;;;;13.90;13.20;;;23.80;99.90;;;;;;3602318;39;20844;-63
2021/06/07 08:32:07;;;;;;;14.57;13.67;;;23.80;99.90;;;;;;3607641;39;20695;-63
2021/06/07 08:34:35;;;;;;;14.40;13.40;;;23.80;99.90;;;;;;3609378;39;20620;-66
2021/06/07 08:37:02;;;;;;;15.33;14.13;;;23.80;99.90;;;;;;3603911;39;20506;-66
2021/06/07 08:39:29;;;;;;;15.13;14.20;;;23.80;99.90;;;;;;3605348;39;20753;-64
2021/06/07 08:41:57;;;;;;;13.87;13.23;;;23.80;99.90;;;;;;3607014;39;20480;-64
2021/06/07 08:44:24;;;;;;;14.60;13.90;;;23.80;99.90;;;;;;3596888;39;20475;-64
2021/06/07 08:46:51;;;;;;;14.70;14.00;;;23.80;99.90;;;;;;3604871;39;20738;-63
2021/06/07 08:49:17;;;;;;;15.07;14.20;;;23.80;99.90;;;;;;3607230;39;20555;-64
2021/06/07 08:51:45;;;;;;;15.50;14.40;;;23.80;99.90;;;;;;3607191;39;20490;-64
2021/06/07 08:54:12;;;;;;;14.57;13.80;;;23.90;99.90;;;;;;3598173;39;20501;-64
2021/06/07 08:56:40;;;;;;;15.17;14.27;;;23.90;99.90;;;;;;3596740;39;20486;-64
2021/06/07 08:59:06;;;;;;;15.67;14.67;;;23.80;99.90;;;;;;3601284;39;20724;-64
2021/06/07 09:01:33;;;;;;;14.37;13.30;;;23.90;99.90;;;;;;3584407;39;20499;-64
2021/06/07 09:04:12;;;;;;;15.33;14.23;;;23.90;99.90;;;;;;3603413;39;20498;-63
2021/06/07 09:06:40;;;;;;;16.87;15.20;;;23.90;99.90;;;;;;3596475;39;20786;-66
2021/06/07 09:09:10;;;;;;;16.30;15.00;;;23.90;99.90;;;;;;3601087;39;20879;-67
2021/06/07 09:11:45;;;;;;;15.37;14.37;;;23.90;99.90;;;;;;3609420;39;20668;-63
2021/06/07 09:14:20;;;;;;;14.80;13.80;;;23.90;99.90;;;;;;3604995;39;20774;-65
2021/06/07 09:16:46;;;;;;;14.27;13.47;;;23.90;99.90;;;;;;3605005;39;20486;-67
2021/06/07 09:19:22;;;;;;;15.02;13.77;;;23.90;99.90;;;;;;3599121;39;21266;-67
2021/06/07 09:21:49;;;;;;;13.77;12.87;;;23.90;99.90;;;;;;3603881;39;20232;-67
2021/06/07 09:24:17;;;;;;;13.93;13.03;;;23.90;99.90;;;;;;3608075;39;20579;-66
2021/06/07 09:26:46;;;;;;;14.10;13.30;;;23.90;99.90;;;;;;3607877;39;20478;-67
2021/06/07 09:29:34;;;;;;;14.40;13.50;;;23.90;99.90;;;;;;3605524;39;20482;-67
2021/06/07 09:32:03;;;;;;;15.50;14.60;;;23.90;99.90;;;;;;3601821;39;20750;-67
2021/06/07 09:34:31;;;;;;;15.37;14.40;;;23.90;99.90;;;;;;3601969;39;20933;-58
2021/06/07 09:37:05;;;;;;;14.90;14.00;;;23.90;99.90;;;;;;3601043;39;20699;-60
2021/06/07 09:39:34;;;;;;;15.93;14.83;;;23.90;99.90;;;;;;3601601;39;20518;-61
2021/06/07 09:42:04;;;;;;;15.70;14.80;;;23.90;99.90;;;;;;3593151;39;20478;-60
2021/06/07 09:44:41;;;;;;;14.27;13.40;;;23.90;99.90;;;;;;3600798;39;20690;-60
2021/06/07 09:47:21;;;;;;;14.50;13.67;;;23.90;99.90;;;;;;3599432;39;20485;-60
2021/06/07 09:49:52;;;;;;;14.83;13.97;;;23.90;99.90;;;;;;3598850;39;20817;-59
2021/06/07 09:52:22;;;;;;;15.10;14.30;;;23.90;99.90;;;;;;3597706;39;20819;-60
2021/06/07 09:55:11;;;;;;;16.20;14.97;;;23.90;99.90;;;;;;3601739;39;20720;-60
2021/06/07 09:57:48;;;;;;;15.80;14.80;;;23.90;99.90;;;;;;3604771;39;20478;-61
2021/06/07 10:00:38;;;;;;;15.03;14.07;;;23.90;99.90;;;;;;3599561;39;20718;-61
2021/06/07 10:03:19;;;;;;;14.60;13.77;;;23.90;99.90;;;;;;3601879;39;20512;-61
2021/06/07 10:05:45;;;;;;;13.63;12.93;;;23.90;99.90;;;;;;3605273;39;20514;-60
2021/06/07 10:08:12;;;;;;;14.20;13.30;;;23.90;99.90;;;;;;3600355;39;20711;-60
2021/06/07 10:10:40;;;;;;;13.70;12.93;;;23.90;99.90;;;;;;3601361;39;20517;-60
2021/06/07 10:13:08;;;;;;;15.00;13.90;;;23.90;99.90;;;;;;3609053;39;21133;-60
2021/06/07 10:15:37;;;;;;;14.80;14.00;;;23.90;99.90;;;;;;3595974;39;20470;-60
2021/06/07 10:18:06;;;;;;;13.83;13.13;;;23.90;99.90;;;;;;3602628;39;20387;-61
2021/06/07 10:20:48;;;;;;;14.03;13.23;;;23.90;99.90;;;;;;3600151;39;20559;-60
2021/06/07 10:23:17;;;;;;;15.50;14.47;;;23.90;99.90;;;;;;3600810;39;20820;-60
2021/06/07 10:25:46;;;;;;;15.27;14.27;;;23.90;99.90;;;;;;3604993;39;20474;-61
2021/06/07 10:28:13;;;;;;;14.50;13.60;;;23.90;99.90;;;;;;3604889;39;21028;-61
2021/06/07 10:30:44;;;;;;;14.87;13.97;;;23.90;99.90;;;;;;3595262;39;20683;-60
2021/06/07 10:33:28;;;;;;;15.50;14.60;;;23.90;99.90;;;;;;3598546;39;20606;-61
2021/06/07 10:35:55;;;;;;;16.20;15.30;;;23.90;99.90;;;;;;3602630;39;20463;-61
2021/06/07 10:38:32;;;;;;;16.63;15.57;;;23.80;99.90;;;;;;3606816;39;20494;-60
2021/06/07 10:41:20;;;;;;;16.10;15.20;;;23.80;99.90;;;;;;3603479;39;20493;-61
2021/06/07 10:43:50;;;;;;;16.20;15.27;;;23.60;99.90;;;;;;3594276;39;20486;-61
2021/06/07 10:46:24;;;;;;;16.87;15.87;;;23.60;99.90;;;;;;3596650;39;20571;-61
2021/06/07 10:48:53;;;;;;;17.30;16.10;;;23.60;99.90;;;;;;3596320;39;20488;-61
2021/06/07 10:51:22;;;;;;;17.47;16.37;;;23.50;99.90;;;;;;3595741;39;20567;-60
2021/06/07 10:53:52;;;;;;;16.77;15.77;;;23.40;99.90;;;;;;3595634;39;20495;-61
2021/06/07 10:56:26;;;;;;;18.80;17.33;;;23.30;99.90;;;;;;3595533;39;20487;-60
2021/06/07 10:58:55;;;;;;;18.70;17.33;;;23.30;99.90;;;;;;3595380;39;20481;-61
2021/06/07 11:01:23;;;;;;;19.10;17.80;;;23.20;99.90;;;;;;3603954;39;21127;-61
2021/06/07 11:03:56;;;;;;;19.57;18.00;;;23.10;99.90;;;;;;3601003;39;20875;-60
2021/06/07 11:06:24;;;;;;;18.67;17.47;;;23.10;99.90;;;;;;3605207;39;20580;-61
2021/06/07 11:09:06;;;;;;;19.23;17.83;;;23.10;99.90;;;;;;3603414;39;20922;-61
2021/06/07 11:11:46;;;;;;;18.93;17.53;;;23.00;99.90;;;;;;3602190;39;20726;-61
2021/06/07 11:14:15;;;;;;;19.67;18.27;;;23.00;99.90;;;;;;3603288;39;20494;-60
2021/06/07 11:16:44;;;;;;;19.13;17.73;;;23.00;99.90;;;;;;3603463;39;20969;-61
2021/06/07 11:19:14;;;;;;;18.07;16.77;;;23.00;99.90;;;;;;3602700;39;21146;-60
2021/06/07 11:21:46;;;;;;;19.00;17.63;;;23.00;99.90;;;;;;3603736;39;20506;-61
2021/06/07 11:24:27;;;;;;;17.87;16.77;;;23.00;99.90;;;;;;3605977;39;20494;-60
2021/06/07 11:26:57;;;;;;;17.03;16.00;;;23.00;99.90;;;;;;3604225;39;21376;-61
2021/06/07 11:29:26;;;;;;;18.97;17.67;;;23.00;99.90;;;;;;3605338;39;20496;-61
2021/06/07 11:31:54;;;;;;;17.93;16.73;;;23.00;99.90;;;;;;3602495;39;20490;-60
2021/06/07 11:34:43;;;;;;;16.37;15.27;;;23.00;99.90;;;;;;3603575;39;20712;-60
2021/06/07 11:37:13;;;;;;;18.77;17.57;;;23.00;99.90;;;;;;3594913;39;20509;-61
2021/06/07 11:39:52;;;;;;;18.70;17.50;;;23.00;99.90;;;;;;3600746;39;20482;-60
2021/06/07 11:42:23;;;;;;;17.40;16.20;;;23.10;99.90;;;;;;3604070;39;20528;-60
2021/06/07 11:44:57;;;;;;;18.13;16.83;;;23.20;99.90;;;;;;3604918;39;20890;-60
2021/06/07 11:47:27;;;;;;;17.80;16.60;;;23.20;99.90;;;;;;3605262;39;20518;-60
2021/06/07 11:50:06;;;;;;;17.60;16.40;;;23.30;99.90;;;;;;3607904;39;20471;-61
2021/06/07 11:52:48;;;;;;;16.87;15.77;;;23.30;99.90;;;;;;3605678;39;20490;-62
2021/06/07 11:55:18;;;;;;;17.03;15.90;;;23.40;99.90;;;;;;3604250;39;20514;-62
2021/06/07 11:57:50;;;;;;;17.07;15.97;;;23.50;99.90;;;;;;3606723;39;20477;-62
2021/06/07 12:00:20;;;;;;;18.40;17.10;;;23.50;99.90;;;;;;3594872;39;20480;-62
2021/06/07 12:02:48;;;;;;;18.20;17.00;;;23.60;99.90;;;;;;3593209;39;20472;-61
2021/06/07 12:05:21;;;;;;;17.87;16.77;;;23.60;99.90;;;;;;3596482;39;20948;-61
2021/06/07 12:07:48;;;;;;;18.17;17.10;;;23.60;99.90;;;;;;3593134;39;20495;-61
2021/06/07 12:10:17;;;;;;;18.60;17.40;;;23.70;99.90;;;;;;3597436;39;20487;-61
2021/06/07 12:12:44;;;;;;;18.43;17.17;;;23.70;99.90;;;;;;3593847;39;20475;-61
2021/06/07 12:15:14;;;;;;;17.90;16.80;;;23.70;99.90;;;;;;3595632;39;20542;-61
2021/06/07 12:17:44;;;;;;;19.10;17.87;;;23.70;99.90;;;;;;3603454;39;20482;-60
2021/06/07 12:20:13;;;;;;;16.90;15.70;;;23.70;99.90;;;;;;3603796;39;20485;-60
2021/06/07 12:22:46;;;;;;;18.63;17.33;;;23.80;99.90;;;;;;3605085;39;20475;-61
2021/06/07 12:25:19;;;;;;;18.20;17.00;;;23.80;99.90;;;;;;3602175;39;20531;-61
2021/06/07 12:30:38;;;;;;;19.23;17.83;;;23.80;99.90;;;;;;3599723;39;21000;-61
2021/06/07 12:33:07;;;;;;;18.70;17.27;;;23.80;99.90;;;;;;3603705;39;20471;-60
2021/06/07 12:35:36;;;;;;;17.50;16.40;;;23.80;99.90;;;;;;3604192;39;20466;-62
2021/06/07 12:38:06;;;;;;;18.60;17.40;;;23.80;99.90;;;;;;3595852;39;20482;-61